Time;durP1;ratioP1;P1;durP2;ratioP2;P2;SDS_P1;SDS_P2;PMS_P1;PMS_P2;Temp;Humidity;BMP_temperature;BMP_pressure;BME280_temperature;BME280_humidity;BME280_pressure;Samples;Min_cycle;Max_cycle;Signal;HPM_P1;HPM_P2
2020/09/27 00:00:22;;;;;;;1;0.8;;;;;;;6.19;100;93841.72;;;;
2020/09/27 00:01:23;;;;;;;1;0.8;;;;;;;6.19;100;93841.72;;;;
2020/09/27 00:02:23;;;;;;;1;0.8;;;;;;;6.19;100;93841.72;;;;
2020/09/27 00:03:24;;;;;;;1;0.8;;;;;;;6.19;100;93841.72;;;;
2020/09/27 00:04:24;;;;;;;1;0.8;;;;;;;6.19;100;93841.72;;;;
2020/09/27 00:05:25;;;;;;;1;0.8;;;;;;;6.19;100;93841.72;;;;
2020/09/27 00:06:28;;;;;;;1;0.8;;;;;;;6.19;100;93841.72;;;;
2020/09/27 00:07:28;;;;;;;1;0.8;;;;;;;6.19;100;93841.72;;;;
2020/09/27 00:08:32;;;;;;;1;0.8;;;;;;;6.19;100;93841.72;;;;
2020/09/27 00:09:32;;;;;;;1;0.8;;;;;;;6.19;100;93841.72;;;;
2020/09/27 00:10:33;;;;;;;0.85;0.85;;;;;;;6.19;100;93840.9;;;;
2020/09/27 00:11:35;;;;;;;0.85;0.85;;;;;;;6.19;100;93840.9;;;;
2020/09/27 00:12:35;;;;;;;0.85;0.85;;;;;;;6.19;100;93840.9;;;;
2020/09/27 00:13:36;;;;;;;0.85;0.85;;;;;;;6.19;100;93840.9;;;;
2020/09/27 00:14:36;;;;;;;0.85;0.85;;;;;;;6.19;100;93840.9;;;;
2020/09/27 00:15:37;;;;;;;0.85;0.85;;;;;;;6.19;100;93840.9;;;;
2020/09/27 00:16:37;;;;;;;0.85;0.85;;;;;;;6.19;100;93840.9;;;;
2020/09/27 00:17:41;;;;;;;0.85;0.85;;;;;;;6.19;100;93840.9;;;;
2020/09/27 00:18:42;;;;;;;0.85;0.85;;;;;;;6.19;100;93840.9;;;;
2020/09/27 00:19:42;;;;;;;0.85;0.85;;;;;;;6.19;100;93840.9;;;;
2020/09/27 00:20:43;;;;;;;0.85;0.85;;;;;;;6.19;100;93840.9;;;;
2020/09/27 00:21:43;;;;;;;0.8;0.8;;;;;;;6.33;100;93826.92;;;;
2020/09/27 00:22:44;;;;;;;0.8;0.8;;;;;;;6.33;100;93826.92;;;;
2020/09/27 00:23:45;;;;;;;0.8;0.8;;;;;;;6.33;100;93826.92;;;;
2020/09/27 00:24:45;;;;;;;0.8;0.8;;;;;;;6.33;100;93826.92;;;;
2020/09/27 00:25:46;;;;;;;0.8;0.8;;;;;;;6.33;100;93826.92;;;;
2020/09/27 00:26:46;;;;;;;0.8;0.8;;;;;;;6.33;100;93826.92;;;;
2020/09/27 00:27:46;;;;;;;0.8;0.8;;;;;;;6.33;100;93826.92;;;;
2020/09/27 00:28:47;;;;;;;0.8;0.8;;;;;;;6.33;100;93826.92;;;;
2020/09/27 00:29:48;;;;;;;0.8;0.8;;;;;;;6.33;100;93826.92;;;;
2020/09/27 00:30:48;;;;;;;0.8;0.8;;;;;;;6.33;100;93826.92;;;;
2020/09/27 00:31:48;;;;;;;1.2;0.9;;;;;;;6.37;100;93823.77;;;;
2020/09/27 00:32:49;;;;;;;1.2;0.9;;;;;;;6.37;100;93823.77;;;;
2020/09/27 00:33:50;;;;;;;1.2;0.9;;;;;;;6.37;100;93823.77;;;;
2020/09/27 00:34:50;;;;;;;1.2;0.9;;;;;;;6.37;100;93823.77;;;;
2020/09/27 00:35:51;;;;;;;1.2;0.9;;;;;;;6.37;100;93823.77;;;;
2020/09/27 00:36:51;;;;;;;1.2;0.9;;;;;;;6.37;100;93823.77;;;;
2020/09/27 00:37:52;;;;;;;1.2;0.9;;;;;;;6.37;100;93823.77;;;;
2020/09/27 00:38:52;;;;;;;1.2;0.9;;;;;;;6.37;100;93823.77;;;;
2020/09/27 00:39:53;;;;;;;1.2;0.9;;;;;;;6.37;100;93823.77;;;;
2020/09/27 00:40:53;;;;;;;1.2;0.9;;;;;;;6.37;100;93823.77;;;;
2020/09/27 00:41:54;;;;;;;1.2;0.9;;;;;;;6.37;100;93823.77;;;;
2020/09/27 00:42:54;;;;;;;1.65;0.95;;;;;;;6.33;100;93833.76;;;;
2020/09/27 00:43:55;;;;;;;1.65;0.95;;;;;;;6.33;100;93833.76;;;;
2020/09/27 00:44:55;;;;;;;1.65;0.95;;;;;;;6.33;100;93833.76;;;;
2020/09/27 00:45:56;;;;;;;1.65;0.95;;;;;;;6.33;100;93833.76;;;;
2020/09/27 00:46:56;;;;;;;1.65;0.95;;;;;;;6.33;100;93833.76;;;;
2020/09/27 00:47:59;;;;;;;1.65;0.95;;;;;;;6.33;100;93833.76;;;;
2020/09/27 00:48:59;;;;;;;1.65;0.95;;;;;;;6.33;100;93833.76;;;;
2020/09/27 00:50:00;;;;;;;1.65;0.95;;;;;;;6.33;100;93833.76;;;;
2020/09/27 00:51:01;;;;;;;1.65;0.95;;;;;;;6.33;100;93833.76;;;;
2020/09/27 00:52:01;;;;;;;1.65;0.95;;;;;;;6.33;100;93833.76;;;;
2020/09/27 00:53:03;;;;;;;0.9;0.9;;;;;;;6.19;100;93846.67;;;;
2020/09/27 00:54:04;;;;;;;0.9;0.9;;;;;;;6.19;100;93846.67;;;;
2020/09/27 00:55:05;;;;;;;0.9;0.9;;;;;;;6.19;100;93846.67;;;;
2020/09/27 00:56:06;;;;;;;0.9;0.9;;;;;;;6.19;100;93846.67;;;;
2020/09/27 00:57:07;;;;;;;0.9;0.9;;;;;;;6.19;100;93846.67;;;;
2020/09/27 00:58:08;;;;;;;0.9;0.9;;;;;;;6.19;100;93846.67;;;;
2020/09/27 00:59:08;;;;;;;0.9;0.9;;;;;;;6.19;100;93846.67;;;;
2020/09/27 01:00:09;;;;;;;0.9;0.9;;;;;;;6.19;100;93846.67;;;;
2020/09/27 01:01:09;;;;;;;0.9;0.9;;;;;;;6.19;100;93846.67;;;;
2020/09/27 01:02:10;;;;;;;0.9;0.9;;;;;;;6.19;100;93846.67;;;;
2020/09/27 01:03:10;;;;;;;0.9;0.9;;;;;;;6.19;100;93846.67;;;;
2020/09/27 01:04:11;;;;;;;0.95;0.85;;;;;;;6.26;100;93841.02;;;;
2020/09/27 01:05:11;;;;;;;0.95;0.85;;;;;;;6.26;100;93841.02;;;;
2020/09/27 01:06:12;;;;;;;0.95;0.85;;;;;;;6.26;100;93841.02;;;;
2020/09/27 01:07:13;;;;;;;0.95;0.85;;;;;;;6.26;100;93841.02;;;;
2020/09/27 01:08:14;;;;;;;0.95;0.85;;;;;;;6.26;100;93841.02;;;;
2020/09/27 01:09:15;;;;;;;0.95;0.85;;;;;;;6.26;100;93841.02;;;;
2020/09/27 01:10:16;;;;;;;0.95;0.85;;;;;;;6.26;100;93841.02;;;;
2020/09/27 01:11:16;;;;;;;0.95;0.85;;;;;;;6.26;100;93841.02;;;;
2020/09/27 01:12:16;;;;;;;0.95;0.85;;;;;;;6.26;100;93841.02;;;;
2020/09/27 01:13:17;;;;;;;0.95;0.85;;;;;;;6.26;100;93841.02;;;;
2020/09/27 01:14:18;;;;;;;1;0.9;;;;;;;6.34;100;93854.03;;;;
2020/09/27 01:15:18;;;;;;;1;0.9;;;;;;;6.34;100;93854.03;;;;
2020/09/27 01:16:18;;;;;;;1;0.9;;;;;;;6.34;100;93854.03;;;;
2020/09/27 01:17:19;;;;;;;1;0.9;;;;;;;6.34;100;93854.03;;;;
2020/09/27 01:18:19;;;;;;;1;0.9;;;;;;;6.34;100;93854.03;;;;
2020/09/27 01:19:20;;;;;;;1;0.9;;;;;;;6.34;100;93854.03;;;;
2020/09/27 01:20:20;;;;;;;1;0.9;;;;;;;6.34;100;93854.03;;;;
2020/09/27 01:21:21;;;;;;;1;0.9;;;;;;;6.34;100;93854.03;;;;
2020/09/27 01:22:21;;;;;;;1;0.9;;;;;;;6.34;100;93854.03;;;;
2020/09/27 01:23:23;;;;;;;1;0.9;;;;;;;6.34;100;93854.03;;;;
2020/09/27 01:24:24;;;;;;;1;0.9;;;;;;;6.34;100;93854.03;;;;
2020/09/27 01:25:24;;;;;;;0.8;0.8;;;;;;;6.33;100;93858.67;;;;
2020/09/27 01:26:25;;;;;;;0.8;0.8;;;;;;;6.33;100;93858.67;;;;
2020/09/27 01:27:25;;;;;;;0.8;0.8;;;;;;;6.33;100;93858.67;;;;
2020/09/27 01:28:26;;;;;;;0.8;0.8;;;;;;;6.33;100;93858.67;;;;
2020/09/27 01:29:26;;;;;;;0.8;0.8;;;;;;;6.33;100;93858.67;;;;
2020/09/27 01:30:27;;;;;;;0.8;0.8;;;;;;;6.33;100;93858.67;;;;
2020/09/27 01:31:27;;;;;;;0.8;0.8;;;;;;;6.33;100;93858.67;;;;
2020/09/27 01:32:28;;;;;;;0.8;0.8;;;;;;;6.33;100;93858.67;;;;
2020/09/27 01:33:28;;;;;;;0.8;0.8;;;;;;;6.33;100;93858.67;;;;
2020/09/27 01:34:29;;;;;;;0.8;0.8;;;;;;;6.33;100;93858.67;;;;
2020/09/27 01:35:29;;;;;;;0.8;0.8;;;;;;;6.33;100;93858.67;;;;
2020/09/27 01:36:30;;;;;;;0.8;0.8;;;;;;;6.26;100;93867;;;;
2020/09/27 01:37:31;;;;;;;0.8;0.8;;;;;;;6.26;100;93867;;;;
2020/09/27 01:38:31;;;;;;;0.8;0.8;;;;;;;6.26;100;93867;;;;
2020/09/27 01:39:32;;;;;;;0.8;0.8;;;;;;;6.26;100;93867;;;;
2020/09/27 01:40:32;;;;;;;0.8;0.8;;;;;;;6.26;100;93867;;;;
2020/09/27 01:41:33;;;;;;;0.8;0.8;;;;;;;6.26;100;93867;;;;
2020/09/27 01:42:33;;;;;;;0.8;0.8;;;;;;;6.26;100;93867;;;;
2020/09/27 01:43:34;;;;;;;0.8;0.8;;;;;;;6.26;100;93867;;;;
2020/09/27 01:44:36;;;;;;;0.8;0.8;;;;;;;6.26;100;93867;;;;
2020/09/27 01:45:36;;;;;;;0.8;0.8;;;;;;;6.26;100;93867;;;;
2020/09/27 01:46:37;;;;;;;0.8;0.8;;;;;;;6.32;100;93888.82;;;;
2020/09/27 01:47:37;;;;;;;0.8;0.8;;;;;;;6.32;100;93888.82;;;;
2020/09/27 01:48:38;;;;;;;0.8;0.8;;;;;;;6.32;100;93888.82;;;;
2020/09/27 01:49:38;;;;;;;0.8;0.8;;;;;;;6.32;100;93888.82;;;;
2020/09/27 01:50:39;;;;;;;0.8;0.8;;;;;;;6.32;100;93888.82;;;;
2020/09/27 01:51:39;;;;;;;0.8;0.8;;;;;;;6.32;100;93888.82;;;;
2020/09/27 01:52:40;;;;;;;0.8;0.8;;;;;;;6.32;100;93888.82;;;;
2020/09/27 01:53:40;;;;;;;0.8;0.8;;;;;;;6.32;100;93888.82;;;;
2020/09/27 01:54:41;;;;;;;0.8;0.8;;;;;;;6.32;100;93888.82;;;;
2020/09/27 01:55:41;;;;;;;0.8;0.8;;;;;;;6.32;100;93888.82;;;;
2020/09/27 01:56:42;;;;;;;0.8;0.8;;;;;;;6.32;100;93888.82;;;;
2020/09/27 01:57:42;;;;;;;0.75;0.75;;;;;;;6.31;100;93889.34;;;;
2020/09/27 01:58:43;;;;;;;0.75;0.75;;;;;;;6.31;100;93889.34;;;;
2020/09/27 01:59:43;;;;;;;0.75;0.75;;;;;;;6.31;100;93889.34;;;;
2020/09/27 02:00:44;;;;;;;0.75;0.75;;;;;;;6.31;100;93889.34;;;;
2020/09/27 02:01:44;;;;;;;0.75;0.75;;;;;;;6.31;100;93889.34;;;;
2020/09/27 02:02:45;;;;;;;0.75;0.75;;;;;;;6.31;100;93889.34;;;;
2020/09/27 02:03:45;;;;;;;0.75;0.75;;;;;;;6.31;100;93889.34;;;;
2020/09/27 02:04:46;;;;;;;0.75;0.75;;;;;;;6.31;100;93889.34;;;;
2020/09/27 02:05:46;;;;;;;0.75;0.75;;;;;;;6.31;100;93889.34;;;;
2020/09/27 02:06:47;;;;;;;0.75;0.75;;;;;;;6.31;100;93889.34;;;;
2020/09/27 02:07:47;;;;;;;0.7;0.7;;;;;;;6.33;100;93898.88;;;;
2020/09/27 02:08:48;;;;;;;0.7;0.7;;;;;;;6.33;100;93898.88;;;;
2020/09/27 02:09:48;;;;;;;0.7;0.7;;;;;;;6.33;100;93898.88;;;;
2020/09/27 02:10:49;;;;;;;0.7;0.7;;;;;;;6.33;100;93898.88;;;;
2020/09/27 02:11:49;;;;;;;0.7;0.7;;;;;;;6.33;100;93898.88;;;;
2020/09/27 02:12:50;;;;;;;0.7;0.7;;;;;;;6.33;100;93898.88;;;;
2020/09/27 02:13:50;;;;;;;0.7;0.7;;;;;;;6.33;100;93898.88;;;;
2020/09/27 02:14:51;;;;;;;0.7;0.7;;;;;;;6.33;100;93898.88;;;;
2020/09/27 02:15:51;;;;;;;0.7;0.7;;;;;;;6.33;100;93898.88;;;;
2020/09/27 02:16:52;;;;;;;0.7;0.7;;;;;;;6.33;100;93898.88;;;;
2020/09/27 02:17:53;;;;;;;0.7;0.7;;;;;;;6.33;100;93898.88;;;;
2020/09/27 02:18:53;;;;;;;0.9;0.7;;;;;;;6.27;100;93893.7;;;;
2020/09/27 02:19:54;;;;;;;0.9;0.7;;;;;;;6.27;100;93893.7;;;;
2020/09/27 02:20:54;;;;;;;0.9;0.7;;;;;;;6.27;100;93893.7;;;;
2020/09/27 02:21:55;;;;;;;0.9;0.7;;;;;;;6.27;100;93893.7;;;;
2020/09/27 02:22:55;;;;;;;0.9;0.7;;;;;;;6.27;100;93893.7;;;;
2020/09/27 02:23:56;;;;;;;0.9;0.7;;;;;;;6.27;100;93893.7;;;;
2020/09/27 02:24:56;;;;;;;0.9;0.7;;;;;;;6.27;100;93893.7;;;;
2020/09/27 02:25:57;;;;;;;0.9;0.7;;;;;;;6.27;100;93893.7;;;;
2020/09/27 02:26:57;;;;;;;0.9;0.7;;;;;;;6.27;100;93893.7;;;;
2020/09/27 02:27:58;;;;;;;0.9;0.7;;;;;;;6.27;100;93893.7;;;;
2020/09/27 02:28:58;;;;;;;0.7;0.7;;;;;;;6.22;100;93916.25;;;;
2020/09/27 02:29:59;;;;;;;0.7;0.7;;;;;;;6.22;100;93916.25;;;;
2020/09/27 02:30:59;;;;;;;0.7;0.7;;;;;;;6.22;100;93916.25;;;;
2020/09/27 02:32:00;;;;;;;0.7;0.7;;;;;;;6.22;100;93916.25;;;;
2020/09/27 02:33:00;;;;;;;0.7;0.7;;;;;;;6.22;100;93916.25;;;;
2020/09/27 02:34:01;;;;;;;0.7;0.7;;;;;;;6.22;100;93916.25;;;;
2020/09/27 02:35:01;;;;;;;0.7;0.7;;;;;;;6.22;100;93916.25;;;;
2020/09/27 02:36:02;;;;;;;0.7;0.7;;;;;;;6.22;100;93916.25;;;;
2020/09/27 02:37:03;;;;;;;0.7;0.7;;;;;;;6.22;100;93916.25;;;;
2020/09/27 02:38:03;;;;;;;0.7;0.7;;;;;;;6.22;100;93916.25;;;;
2020/09/27 02:39:04;;;;;;;0.7;0.7;;;;;;;6.22;100;93916.25;;;;
2020/09/27 02:40:04;;;;;;;0.7;0.7;;;;;;;6.15;100;93910.39;;;;
2020/09/27 02:41:05;;;;;;;0.7;0.7;;;;;;;6.15;100;93910.39;;;;
2020/09/27 02:42:05;;;;;;;0.7;0.7;;;;;;;6.15;100;93910.39;;;;
2020/09/27 02:43:06;;;;;;;0.7;0.7;;;;;;;6.15;100;93910.39;;;;
2020/09/27 02:44:06;;;;;;;0.7;0.7;;;;;;;6.15;100;93910.39;;;;
2020/09/27 02:45:07;;;;;;;0.7;0.7;;;;;;;6.15;100;93910.39;;;;
2020/09/27 02:46:07;;;;;;;0.7;0.7;;;;;;;6.15;100;93910.39;;;;
2020/09/27 02:47:08;;;;;;;0.7;0.7;;;;;;;6.15;100;93910.39;;;;
2020/09/27 02:48:08;;;;;;;0.7;0.7;;;;;;;6.15;100;93910.39;;;;
2020/09/27 02:49:08;;;;;;;0.7;0.7;;;;;;;6.15;100;93910.39;;;;
2020/09/27 02:50:09;;;;;;;0.7;0.7;;;;;;;6.15;100;93910.39;;;;
2020/09/27 02:51:10;;;;;;;0.5;0.5;;;;;;;6.04;100;93920.12;;;;
2020/09/27 02:52:10;;;;;;;0.5;0.5;;;;;;;6.04;100;93920.12;;;;
2020/09/27 02:53:11;;;;;;;0.5;0.5;;;;;;;6.04;100;93920.12;;;;
2020/09/27 02:54:11;;;;;;;0.5;0.5;;;;;;;6.04;100;93920.12;;;;
2020/09/27 02:55:12;;;;;;;0.5;0.5;;;;;;;6.04;100;93920.12;;;;
2020/09/27 02:56:12;;;;;;;0.5;0.5;;;;;;;6.04;100;93920.12;;;;
2020/09/27 02:57:13;;;;;;;0.5;0.5;;;;;;;6.04;100;93920.12;;;;
2020/09/27 02:58:13;;;;;;;0.5;0.5;;;;;;;6.04;100;93920.12;;;;
2020/09/27 02:59:14;;;;;;;0.5;0.5;;;;;;;6.04;100;93920.12;;;;
2020/09/27 03:00:14;;;;;;;0.5;0.5;;;;;;;6.04;100;93920.12;;;;
2020/09/27 03:01:15;;;;;;;0.7;0.6;;;;;;;5.9;100;93915.3;;;;
2020/09/27 03:02:15;;;;;;;0.7;0.6;;;;;;;5.9;100;93915.3;;;;
2020/09/27 03:03:16;;;;;;;0.7;0.6;;;;;;;5.9;100;93915.3;;;;
2020/09/27 03:04:16;;;;;;;0.7;0.6;;;;;;;5.9;100;93915.3;;;;
2020/09/27 03:05:17;;;;;;;0.7;0.6;;;;;;;5.9;100;93915.3;;;;
2020/09/27 03:06:17;;;;;;;0.7;0.6;;;;;;;5.9;100;93915.3;;;;
2020/09/27 03:07:18;;;;;;;0.7;0.6;;;;;;;5.9;100;93915.3;;;;
2020/09/27 03:08:18;;;;;;;0.7;0.6;;;;;;;5.9;100;93915.3;;;;
2020/09/27 03:09:19;;;;;;;0.7;0.6;;;;;;;5.9;100;93915.3;;;;
2020/09/27 03:10:19;;;;;;;0.7;0.6;;;;;;;5.9;100;93915.3;;;;
2020/09/27 03:11:20;;;;;;;0.7;0.6;;;;;;;5.9;100;93915.3;;;;
2020/09/27 03:12:20;;;;;;;0.4;0.4;;;;;;;5.73;100;93920.98;;;;
2020/09/27 03:13:21;;;;;;;0.4;0.4;;;;;;;5.73;100;93920.98;;;;
2020/09/27 03:14:21;;;;;;;0.4;0.4;;;;;;;5.73;100;93920.98;;;;
2020/09/27 03:15:22;;;;;;;0.4;0.4;;;;;;;5.73;100;93920.98;;;;
2020/09/27 03:16:22;;;;;;;0.4;0.4;;;;;;;5.73;100;93920.98;;;;
2020/09/27 03:17:25;;;;;;;0.4;0.4;;;;;;;5.73;100;93920.98;;;;
2020/09/27 03:18:25;;;;;;;0.4;0.4;;;;;;;5.73;100;93920.98;;;;
2020/09/27 03:19:26;;;;;;;0.4;0.4;;;;;;;5.73;100;93920.98;;;;
2020/09/27 03:20:26;;;;;;;0.4;0.4;;;;;;;5.73;100;93920.98;;;;
2020/09/27 03:21:27;;;;;;;0.4;0.4;;;;;;;5.73;100;93920.98;;;;
2020/09/27 03:22:27;;;;;;;0.5;0.5;;;;;;;5.58;100;93915.34;;;;
2020/09/27 03:23:28;;;;;;;0.5;0.5;;;;;;;5.58;100;93915.34;;;;
2020/09/27 03:24:29;;;;;;;0.5;0.5;;;;;;;5.58;100;93915.34;;;;
2020/09/27 03:25:29;;;;;;;0.5;0.5;;;;;;;5.58;100;93915.34;;;;
2020/09/27 03:26:30;;;;;;;0.5;0.5;;;;;;;5.58;100;93915.34;;;;
2020/09/27 03:27:30;;;;;;;0.5;0.5;;;;;;;5.58;100;93915.34;;;;
2020/09/27 03:28:31;;;;;;;0.5;0.5;;;;;;;5.58;100;93915.34;;;;
2020/09/27 03:29:31;;;;;;;0.5;0.5;;;;;;;5.58;100;93915.34;;;;
2020/09/27 03:30:32;;;;;;;0.5;0.5;;;;;;;5.58;100;93915.34;;;;
2020/09/27 03:31:32;;;;;;;0.5;0.5;;;;;;;5.58;100;93915.34;;;;
2020/09/27 03:32:33;;;;;;;0.5;0.5;;;;;;;5.58;100;93915.34;;;;
2020/09/27 03:33:33;;;;;;;2;0.7;;;;;;;5.43;100;93911.05;;;;
2020/09/27 03:34:34;;;;;;;2;0.7;;;;;;;5.43;100;93911.05;;;;
2020/09/27 03:35:35;;;;;;;2;0.7;;;;;;;5.43;100;93911.05;;;;
2020/09/27 03:36:35;;;;;;;2;0.7;;;;;;;5.43;100;93911.05;;;;
2020/09/27 03:37:36;;;;;;;2;0.7;;;;;;;5.43;100;93911.05;;;;
2020/09/27 03:38:37;;;;;;;2;0.7;;;;;;;5.43;100;93911.05;;;;
2020/09/27 03:39:37;;;;;;;2;0.7;;;;;;;5.43;100;93911.05;;;;
2020/09/27 03:40:38;;;;;;;2;0.7;;;;;;;5.43;100;93911.05;;;;
2020/09/27 03:41:38;;;;;;;2;0.7;;;;;;;5.43;100;93911.05;;;;
2020/09/27 03:42:39;;;;;;;2;0.7;;;;;;;5.43;100;93911.05;;;;
2020/09/27 03:43:43;;;;;;;0.55;0.55;;;;;;;5.33;100;93892.91;;;;
2020/09/27 03:44:46;;;;;;;0.55;0.55;;;;;;;5.33;100;93892.91;;;;
2020/09/27 03:45:48;;;;;;;0.55;0.55;;;;;;;5.33;100;93892.91;;;;
2020/09/27 03:46:49;;;;;;;0.55;0.55;;;;;;;5.33;100;93892.91;;;;
2020/09/27 03:47:49;;;;;;;0.55;0.55;;;;;;;5.33;100;93892.91;;;;
2020/09/27 03:48:50;;;;;;;0.55;0.55;;;;;;;5.33;100;93892.91;;;;
2020/09/27 03:49:53;;;;;;;0.55;0.55;;;;;;;5.33;100;93892.91;;;;
2020/09/27 03:50:53;;;;;;;0.55;0.55;;;;;;;5.33;100;93892.91;;;;
2020/09/27 03:51:59;;;;;;;0.55;0.55;;;;;;;5.33;100;93892.91;;;;
2020/09/27 03:53:00;;;;;;;0.55;0.55;;;;;;;5.33;100;93892.91;;;;
2020/09/27 03:54:00;;;;;;;0.55;0.55;;;;;;;5.33;100;93892.91;;;;
2020/09/27 03:55:01;;;;;;;0.7;0.6;;;;;;;5.21;100;93882.37;;;;
2020/09/27 03:56:01;;;;;;;0.7;0.6;;;;;;;5.21;100;93882.37;;;;
2020/09/27 03:57:08;;;;;;;0.7;0.6;;;;;;;5.21;100;93882.37;;;;
2020/09/27 03:58:08;;;;;;;0.7;0.6;;;;;;;5.21;100;93882.37;;;;
2020/09/27 03:59:09;;;;;;;0.7;0.6;;;;;;;5.21;100;93882.37;;;;
2020/09/27 04:00:19;;;;;;;0.7;0.6;;;;;;;5.21;100;93882.37;;;;
2020/09/27 04:01:20;;;;;;;0.7;0.6;;;;;;;5.21;100;93882.37;;;;
2020/09/27 04:02:20;;;;;;;0.7;0.6;;;;;;;5.21;100;93882.37;;;;
2020/09/27 04:03:28;;;;;;;0.7;0.6;;;;;;;5.21;100;93882.37;;;;
2020/09/27 04:04:30;;;;;;;0.7;0.6;;;;;;;5.21;100;93882.37;;;;
2020/09/27 04:05:30;;;;;;;0.65;0.65;;;;;;;5.07;100;93874.71;;;;
2020/09/27 04:06:31;;;;;;;0.65;0.65;;;;;;;5.07;100;93874.71;;;;
2020/09/27 04:07:32;;;;;;;0.65;0.65;;;;;;;5.07;100;93874.71;;;;
2020/09/27 04:08:32;;;;;;;0.65;0.65;;;;;;;5.07;100;93874.71;;;;
2020/09/27 04:09:32;;;;;;;0.65;0.65;;;;;;;5.07;100;93874.71;;;;
2020/09/27 04:10:41;;;;;;;0.65;0.65;;;;;;;5.07;100;93874.71;;;;
2020/09/27 04:11:41;;;;;;;0.65;0.65;;;;;;;5.07;100;93874.71;;;;
2020/09/27 04:12:43;;;;;;;0.65;0.65;;;;;;;5.07;100;93874.71;;;;
2020/09/27 04:13:43;;;;;;;0.65;0.65;;;;;;;5.07;100;93874.71;;;;
2020/09/27 04:14:51;;;;;;;0.65;0.65;;;;;;;5.07;100;93874.71;;;;
2020/09/27 04:15:52;;;;;;;0.6;0.6;;;;;;;4.97;100;93888.81;;;;
2020/09/27 04:16:52;;;;;;;0.6;0.6;;;;;;;4.97;100;93888.81;;;;
2020/09/27 04:17:53;;;;;;;0.6;0.6;;;;;;;4.97;100;93888.81;;;;
2020/09/27 04:18:53;;;;;;;0.6;0.6;;;;;;;4.97;100;93888.81;;;;
2020/09/27 04:20:06;;;;;;;0.6;0.6;;;;;;;4.97;100;93888.81;;;;
2020/09/27 04:21:07;;;;;;;0.6;0.6;;;;;;;4.97;100;93888.81;;;;
2020/09/27 04:22:07;;;;;;;0.6;0.6;;;;;;;4.97;100;93888.81;;;;
2020/09/27 04:23:08;;;;;;;0.6;0.6;;;;;;;4.97;100;93888.81;;;;
2020/09/27 04:24:10;;;;;;;0.6;0.6;;;;;;;4.97;100;93888.81;;;;
2020/09/27 04:25:11;;;;;;;0.6;0.6;;;;;;;4.97;100;93888.81;;;;
2020/09/27 04:26:17;;;;;;;0.6;0.6;;;;;;;4.97;100;93888.81;;;;
2020/09/27 04:27:17;;;;;;;1;0.6;;;;;;;4.89;100;93884.23;;;;
2020/09/27 04:28:17;;;;;;;1;0.6;;;;;;;4.89;100;93884.23;;;;
2020/09/27 04:29:27;;;;;;;1;0.6;;;;;;;4.89;100;93884.23;;;;
2020/09/27 04:30:27;;;;;;;1;0.6;;;;;;;4.89;100;93884.23;;;;
2020/09/27 04:31:28;;;;;;;1;0.6;;;;;;;4.89;100;93884.23;;;;
2020/09/27 04:32:29;;;;;;;1;0.6;;;;;;;4.89;100;93884.23;;;;
2020/09/27 04:33:29;;;;;;;1;0.6;;;;;;;4.89;100;93884.23;;;;
2020/09/27 04:34:30;;;;;;;1;0.6;;;;;;;4.89;100;93884.23;;;;
2020/09/27 04:35:31;;;;;;;1;0.6;;;;;;;4.89;100;93884.23;;;;
2020/09/27 04:36:32;;;;;;;1;0.6;;;;;;;4.89;100;93884.23;;;;
2020/09/27 04:37:40;;;;;;;1;0.75;;;;;;;4.85;100;93891.63;;;;
2020/09/27 04:38:42;;;;;;;1;0.75;;;;;;;4.85;100;93891.63;;;;
2020/09/27 04:39:43;;;;;;;1;0.75;;;;;;;4.85;100;93891.63;;;;
2020/09/27 04:40:43;;;;;;;1;0.75;;;;;;;4.85;100;93891.63;;;;
2020/09/27 04:41:44;;;;;;;1;0.75;;;;;;;4.85;100;93891.63;;;;
2020/09/27 04:42:46;;;;;;;1;0.75;;;;;;;4.85;100;93891.63;;;;
2020/09/27 04:43:50;;;;;;;1;0.75;;;;;;;4.85;100;93891.63;;;;
2020/09/27 04:44:51;;;;;;;1;0.75;;;;;;;4.85;100;93891.63;;;;
2020/09/27 04:45:52;;;;;;;1;0.75;;;;;;;4.85;100;93891.63;;;;
2020/09/27 04:46:55;;;;;;;1;0.75;;;;;;;4.85;100;93891.63;;;;
2020/09/27 04:48:03;;;;;;;0.7;0.7;;;;;;;4.96;100;93899.66;;;;
2020/09/27 04:49:07;;;;;;;0.7;0.7;;;;;;;4.96;100;93899.66;;;;
2020/09/27 04:50:15;;;;;;;0.7;0.7;;;;;;;4.96;100;93899.66;;;;
2020/09/27 04:51:21;;;;;;;0.7;0.7;;;;;;;4.96;100;93899.66;;;;
2020/09/27 04:52:31;;;;;;;0.7;0.7;;;;;;;4.96;100;93899.66;;;;
2020/09/27 04:53:35;;;;;;;0.7;0.7;;;;;;;4.96;100;93899.66;;;;
2020/09/27 04:54:36;;;;;;;0.7;0.7;;;;;;;4.96;100;93899.66;;;;
2020/09/27 04:55:39;;;;;;;0.7;0.7;;;;;;;4.96;100;93899.66;;;;
2020/09/27 04:56:40;;;;;;;0.7;0.7;;;;;;;4.96;100;93899.66;;;;
2020/09/27 04:58:12;;;;;;;0.7;0.7;;;;;;;4.96;100;93899.66;;;;
2020/09/27 04:59:21;;;;;;;0.7;0.7;;;;;;;5.04;100;93897.52;;;;
2020/09/27 05:00:22;;;;;;;0.7;0.7;;;;;;;5.04;100;93897.52;;;;
2020/09/27 05:01:22;;;;;;;0.7;0.7;;;;;;;5.04;100;93897.52;;;;
2020/09/27 05:02:23;;;;;;;0.7;0.7;;;;;;;5.04;100;93897.52;;;;
2020/09/27 05:03:23;;;;;;;0.7;0.7;;;;;;;5.04;100;93897.52;;;;
2020/09/27 05:04:25;;;;;;;0.7;0.7;;;;;;;5.04;100;93897.52;;;;
2020/09/27 05:05:25;;;;;;;0.7;0.7;;;;;;;5.04;100;93897.52;;;;
2020/09/27 05:06:27;;;;;;;0.7;0.7;;;;;;;5.04;100;93897.52;;;;
2020/09/27 05:07:58;;;;;;;0.7;0.7;;;;;;;5.04;100;93897.52;;;;
2020/09/27 05:09:05;;;;;;;0.6;0.6;;;;;;;4.99;100;93907.7;;;;
2020/09/27 05:10:06;;;;;;;0.6;0.6;;;;;;;4.99;100;93907.7;;;;
2020/09/27 05:11:06;;;;;;;0.6;0.6;;;;;;;4.99;100;93907.7;;;;
2020/09/27 05:12:14;;;;;;;0.6;0.6;;;;;;;4.99;100;93907.7;;;;
2020/09/27 05:13:15;;;;;;;0.6;0.6;;;;;;;4.99;100;93907.7;;;;
2020/09/27 05:14:21;;;;;;;0.6;0.6;;;;;;;4.99;100;93907.7;;;;
2020/09/27 05:15:22;;;;;;;0.6;0.6;;;;;;;4.99;100;93907.7;;;;
2020/09/27 05:16:22;;;;;;;0.6;0.6;;;;;;;4.99;100;93907.7;;;;
2020/09/27 05:17:23;;;;;;;0.6;0.6;;;;;;;4.99;100;93907.7;;;;
2020/09/27 05:18:24;;;;;;;0.6;0.6;;;;;;;4.99;100;93907.7;;;;
2020/09/27 05:19:26;;;;;;;0.6;0.6;;;;;;;4.99;100;93907.7;;;;
2020/09/27 05:20:26;;;;;;;0.8;0.7;;;;;;;5.01;100;93910.55;;;;
2020/09/27 05:21:29;;;;;;;0.8;0.7;;;;;;;5.01;100;93910.55;;;;
2020/09/27 05:22:46;;;;;;;0.8;0.7;;;;;;;5.01;100;93910.55;;;;
2020/09/27 05:23:46;;;;;;;0.8;0.7;;;;;;;5.01;100;93910.55;;;;
2020/09/27 05:24:47;;;;;;;0.8;0.7;;;;;;;5.01;100;93910.55;;;;
2020/09/27 05:25:47;;;;;;;0.8;0.7;;;;;;;5.01;100;93910.55;;;;
2020/09/27 05:27:00;;;;;;;0.8;0.7;;;;;;;5.01;100;93910.55;;;;
2020/09/27 05:28:07;;;;;;;0.8;0.7;;;;;;;5.01;100;93910.55;;;;
2020/09/27 05:29:08;;;;;;;0.8;0.7;;;;;;;5.01;100;93910.55;;;;
2020/09/27 05:30:08;;;;;;;0.8;0.7;;;;;;;5.01;100;93910.55;;;;
2020/09/27 05:31:09;;;;;;;0.6;0.6;;;;;;;5.07;100;93916.17;;;;
2020/09/27 05:32:14;;;;;;;0.6;0.6;;;;;;;5.07;100;93916.17;;;;
2020/09/27 05:33:14;;;;;;;0.6;0.6;;;;;;;5.07;100;93916.17;;;;
2020/09/27 05:34:15;;;;;;;0.6;0.6;;;;;;;5.07;100;93916.17;;;;
2020/09/27 05:35:15;;;;;;;0.6;0.6;;;;;;;5.07;100;93916.17;;;;
2020/09/27 05:36:16;;;;;;;0.6;0.6;;;;;;;5.07;100;93916.17;;;;
2020/09/27 05:37:17;;;;;;;0.6;0.6;;;;;;;5.07;100;93916.17;;;;
2020/09/27 05:38:18;;;;;;;0.6;0.6;;;;;;;5.07;100;93916.17;;;;
2020/09/27 05:39:29;;;;;;;0.6;0.6;;;;;;;5.07;100;93916.17;;;;
2020/09/27 05:40:35;;;;;;;0.6;0.6;;;;;;;5.07;100;93916.17;;;;
2020/09/27 05:41:42;;;;;;;0.9;0.8;;;;;;;5.37;100;93917.33;;;;
2020/09/27 05:42:43;;;;;;;0.9;0.8;;;;;;;5.37;100;93917.33;;;;
2020/09/27 05:43:51;;;;;;;0.9;0.8;;;;;;;5.37;100;93917.33;;;;
2020/09/27 05:44:57;;;;;;;0.9;0.8;;;;;;;5.37;100;93917.33;;;;
2020/09/27 05:45:58;;;;;;;0.9;0.8;;;;;;;5.37;100;93917.33;;;;
2020/09/27 05:47:09;;;;;;;0.9;0.8;;;;;;;5.37;100;93917.33;;;;
2020/09/27 05:48:10;;;;;;;0.9;0.8;;;;;;;5.37;100;93917.33;;;;
2020/09/27 05:49:11;;;;;;;0.9;0.8;;;;;;;5.37;100;93917.33;;;;
2020/09/27 05:50:11;;;;;;;0.9;0.8;;;;;;;5.37;100;93917.33;;;;
2020/09/27 05:51:12;;;;;;;0.9;0.8;;;;;;;5.37;100;93917.33;;;;
2020/09/27 05:52:13;;;;;;;0.6;0.6;;;;;;;5.75;100;93909.52;;;;
2020/09/27 05:53:19;;;;;;;0.6;0.6;;;;;;;5.75;100;93909.52;;;;
2020/09/27 05:54:19;;;;;;;0.6;0.6;;;;;;;5.75;100;93909.52;;;;
2020/09/27 05:55:20;;;;;;;0.6;0.6;;;;;;;5.75;100;93909.52;;;;
2020/09/27 05:56:20;;;;;;;0.6;0.6;;;;;;;5.75;100;93909.52;;;;
2020/09/27 05:57:21;;;;;;;0.6;0.6;;;;;;;5.75;100;93909.52;;;;
2020/09/27 05:58:21;;;;;;;0.6;0.6;;;;;;;5.75;100;93909.52;;;;
2020/09/27 05:59:22;;;;;;;0.6;0.6;;;;;;;5.75;100;93909.52;;;;
2020/09/27 06:00:24;;;;;;;0.6;0.6;;;;;;;5.75;100;93909.52;;;;
2020/09/27 06:01:25;;;;;;;0.6;0.6;;;;;;;5.75;100;93909.52;;;;
2020/09/27 06:02:32;;;;;;;0.8;0.8;;;;;;;6.22;100;93904.19;;;;
2020/09/27 06:03:33;;;;;;;0.8;0.8;;;;;;;6.22;100;93904.19;;;;
2020/09/27 06:04:35;;;;;;;0.8;0.8;;;;;;;6.22;100;93904.19;;;;
2020/09/27 06:05:36;;;;;;;0.8;0.8;;;;;;;6.22;100;93904.19;;;;
2020/09/27 06:06:37;;;;;;;0.8;0.8;;;;;;;6.22;100;93904.19;;;;
2020/09/27 06:07:39;;;;;;;0.8;0.8;;;;;;;6.22;100;93904.19;;;;
2020/09/27 06:08:41;;;;;;;0.8;0.8;;;;;;;6.22;100;93904.19;;;;
2020/09/27 06:09:44;;;;;;;0.8;0.8;;;;;;;6.22;100;93904.19;;;;
2020/09/27 06:10:45;;;;;;;0.8;0.8;;;;;;;6.22;100;93904.19;;;;
2020/09/27 06:11:46;;;;;;;0.8;0.8;;;;;;;6.22;100;93904.19;;;;
2020/09/27 06:12:47;;;;;;;0.8;0.8;;;;;;;6.22;100;93904.19;;;;
2020/09/27 06:13:48;;;;;;;1.6;0.8;;;;;;;6.81;100;93902.31;;;;
2020/09/27 06:14:49;;;;;;;1.6;0.8;;;;;;;6.81;100;93902.31;;;;
2020/09/27 06:15:50;;;;;;;1.6;0.8;;;;;;;6.81;100;93902.31;;;;
2020/09/27 06:16:52;;;;;;;1.6;0.8;;;;;;;6.81;100;93902.31;;;;
2020/09/27 06:17:52;;;;;;;1.6;0.8;;;;;;;6.81;100;93902.31;;;;
2020/09/27 06:18:53;;;;;;;1.6;0.8;;;;;;;6.81;100;93902.31;;;;
2020/09/27 06:19:55;;;;;;;1.6;0.8;;;;;;;6.81;100;93902.31;;;;
2020/09/27 06:20:55;;;;;;;1.6;0.8;;;;;;;6.81;100;93902.31;;;;
2020/09/27 06:21:56;;;;;;;1.6;0.8;;;;;;;6.81;100;93902.31;;;;
2020/09/27 06:22:56;;;;;;;1.6;0.8;;;;;;;6.81;100;93902.31;;;;
2020/09/27 06:23:57;;;;;;;0.9;0.7;;;;;;;7.25;100;93888.81;;;;
2020/09/27 06:24:58;;;;;;;0.9;0.7;;;;;;;7.25;100;93888.81;;;;
2020/09/27 06:25:58;;;;;;;0.9;0.7;;;;;;;7.25;100;93888.81;;;;
2020/09/27 06:26:59;;;;;;;0.9;0.7;;;;;;;7.25;100;93888.81;;;;
2020/09/27 06:28:02;;;;;;;0.9;0.7;;;;;;;7.25;100;93888.81;;;;
2020/09/27 06:29:08;;;;;;;0.9;0.7;;;;;;;7.25;100;93888.81;;;;
2020/09/27 06:30:09;;;;;;;0.9;0.7;;;;;;;7.25;100;93888.81;;;;
2020/09/27 06:31:09;;;;;;;0.9;0.7;;;;;;;7.25;100;93888.81;;;;
2020/09/27 06:32:10;;;;;;;0.9;0.7;;;;;;;7.25;100;93888.81;;;;
2020/09/27 06:33:15;;;;;;;0.9;0.7;;;;;;;7.25;100;93888.81;;;;